Chicoutimi, Canada
Current Conditions -  °F | °C
As of 11:00 PM on Wednesday 22 Oct 2014 (Local Time) from CYBG Reporting Station
Clear Clear  
Wind Chill: 32°   Ceiling: Unl
Heat Index: 36°   Visibility: 15mi
Dew Point: 28°   Wind: 5mph
Humidity: 75%   Direction: 100°E
Pressure: 30.39"   Gusts: NA
Location:  48.43°N, 71.06°W
Report Text: CYBG 230300Z 10004KT 15SM SKC 02/M02 A3039 RMK SLP300
Loading
Personal Weather Stations






























Interactive Weather Map
Tropical Storm Tracking
New forecast layout! Learn more

10-Day Weather Forecast

Advertisements
Track Severe Weather on mobile